createdAt,value
2019-04-19T00:05:09.384Z,20.40
2019-04-19T00:10:27.185Z,20.40
2019-04-19T00:15:26.561Z,20.40
2019-04-19T00:58:52.736Z,20.00
2019-04-19T01:03:55.652Z,19.90
2019-04-19T01:21:09.146Z,19.80
2019-04-19T01:49:57.605Z,19.70
2019-04-19T01:54:57.890Z,19.70
2019-04-19T01:59:57.592Z,19.60
2019-04-19T02:05:07.135Z,19.40
2019-04-19T02:10:41.915Z,19.40
2019-04-19T02:15:41.607Z,19.40
2019-04-19T02:20:45.961Z,19.30
2019-04-19T02:25:47.658Z,19.10
2019-04-19T02:31:10.829Z,19.00
2019-04-19T02:57:57.225Z,18.30
2019-04-19T03:19:24.948Z,18.20
2019-04-19T03:24:42.389Z,18.20
2019-04-19T03:29:34.834Z,18.10
2019-04-19T03:35:01.534Z,18.20
2019-04-19T03:51:26.318Z,18.50
2019-04-19T03:56:31.990Z,18.50
2019-04-19T04:01:21.439Z,18.50
2019-04-19T04:06:30.908Z,18.40
2019-04-19T04:11:50.879Z,18.30
2019-04-19T04:17:01.886Z,18.40
2019-04-19T04:22:15.080Z,18.50
2019-04-19T04:27:29.267Z,18.50
2019-04-19T04:32:40.694Z,18.40
2019-04-19T04:37:44.780Z,18.30
2019-04-19T04:42:44.352Z,18.00
2019-04-19T04:48:07.812Z,17.90
2019-04-19T04:53:06.779Z,17.70
2019-04-19T04:58:22.023Z,17.60
2019-04-19T05:03:40.037Z,17.60
2019-04-19T05:08:48.962Z,17.50
2019-04-19T05:13:51.414Z,17.40
2019-04-19T05:18:53.766Z,17.50
2019-04-19T05:24:04.990Z,17.60
2019-04-19T05:29:07.279Z,17.70
2019-04-19T05:34:20.454Z,17.80
2019-04-19T05:39:53.166Z,17.90
2019-04-19T05:45:10.980Z,18.10
2019-04-19T06:01:08.837Z,18.50
2019-04-19T06:06:29.599Z,18.50
2019-04-19T06:11:10.441Z,18.60
2019-04-19T06:16:32.726Z,18.70
2019-04-19T06:21:36.715Z,18.80
2019-04-19T06:31:57.753Z,18.90
2019-04-19T06:36:55.881Z,19.00
2019-04-19T06:41:56.921Z,19.00
2019-04-19T06:47:06.086Z,19.10
2019-04-19T06:52:09.551Z,19.10
2019-04-19T06:57:20.251Z,19.20
2019-04-19T07:02:16.891Z,19.30
2019-04-19T07:07:43.896Z,19.40
2019-04-19T07:12:46.882Z,19.50
2019-04-19T07:17:51.255Z,19.60
2019-04-19T07:22:58.816Z,19.60
2019-04-19T07:27:59.800Z,19.70
2019-04-19T07:33:04.808Z,19.60
2019-04-19T07:38:43.076Z,19.60
2019-04-19T07:43:28.873Z,19.70
2019-04-19T07:48:27.871Z,19.70
2019-04-19T07:53:40.265Z,19.70
2019-04-19T07:59:02.511Z,19.70
2019-04-19T08:09:22.388Z,19.80
2019-04-19T08:14:38.326Z,19.90
2019-04-19T08:29:36.432Z,20.10
2019-04-19T08:34:32.884Z,20.20
2019-04-19T08:39:56.817Z,20.30
2019-04-19T08:44:54.668Z,20.40
2019-04-19T08:50:15.296Z,20.50
2019-04-19T08:55:40.673Z,20.60
2019-04-19T09:01:03.587Z,20.70
2019-04-19T09:06:10.780Z,20.90
2019-04-19T09:33:42.361Z,21.50
2019-04-19T09:44:55.009Z,21.80
2019-04-19T09:50:06.664Z,22.00
2019-04-19T09:55:26.896Z,22.30
2019-04-19T10:00:20.242Z,22.50
2019-04-19T10:05:23.918Z,22.60
2019-04-19T10:10:29.274Z,22.70
2019-04-19T10:15:41.055Z,22.90
2019-04-19T10:21:10.804Z,23.00
2019-04-19T10:26:22.258Z,23.10
2019-04-19T10:31:40.030Z,23.30
2019-04-19T10:36:47.734Z,23.50
2019-04-19T11:03:59.104Z,24.80
2019-04-19T11:36:33.681Z,26.30
2019-04-19T11:41:38.962Z,26.60
2019-04-19T11:46:45.778Z,27.00
2019-04-19T11:51:51.294Z,27.20
2019-04-19T11:57:07.449Z,27.50
2019-04-19T12:02:16.194Z,27.80
2019-04-19T12:07:21.374Z,28.00
2019-04-19T12:12:27.575Z,28.30
2019-04-19T12:17:33.435Z,28.50
2019-04-19T12:22:38.247Z,28.50
2019-04-19T12:27:46.349Z,28.60
2019-04-19T12:32:55.516Z,28.80
2019-04-19T12:38:01.995Z,29.00
2019-04-19T12:43:07.824Z,29.20
2019-04-19T12:48:13.989Z,29.60
2019-04-19T12:53:19.528Z,29.80
2019-04-19T12:58:26.007Z,29.80
2019-04-19T13:03:50.372Z,30.00
2019-04-19T13:08:57.133Z,30.00
2019-04-19T13:14:03.738Z,30.00
2019-04-19T13:19:10.102Z,30.10
2019-04-19T13:24:16.259Z,30.20
2019-04-19T13:29:21.595Z,30.30
2019-04-19T13:34:27.513Z,30.50
2019-04-19T13:39:58.397Z,30.60
2019-04-19T13:45:14.048Z,30.70
2019-04-19T13:50:22.150Z,30.80
2019-04-19T13:55:18.900Z,31.10
2019-04-19T14:00:40.586Z,31.10
2019-04-19T14:05:46.388Z,31.30
2019-04-19T14:10:52.962Z,31.20
2019-04-19T14:15:58.820Z,31.30
2019-04-19T14:21:04.129Z,31.30
2019-04-19T14:26:09.799Z,31.30
2019-04-19T14:31:16.503Z,31.40
2019-04-19T14:36:22.627Z,31.40
2019-04-19T14:41:29.515Z,31.50
2019-04-19T14:46:34.817Z,31.50
2019-04-19T14:51:42.365Z,31.40
2019-04-19T14:56:47.825Z,31.40
2019-04-19T15:02:13.124Z,31.30
2019-04-19T15:07:19.069Z,31.40
2019-04-19T15:12:24.813Z,31.30
2019-04-19T15:17:31.050Z,31.30
2019-04-19T15:22:38.075Z,31.40
2019-04-19T15:27:44.360Z,31.30
2019-04-19T15:32:50.602Z,31.10
2019-04-19T15:37:58.043Z,31.10
2019-04-19T15:43:05.237Z,31.00
2019-04-19T15:48:11.039Z,31.00
2019-04-19T15:53:18.152Z,30.90
2019-04-19T15:58:24.597Z,30.80
2019-04-19T16:03:49.993Z,30.70
2019-04-19T16:09:10.956Z,30.70
2019-04-19T16:14:17.613Z,30.60
2019-04-19T16:19:26.039Z,30.50
2019-04-19T16:24:31.747Z,30.30
2019-04-19T16:29:43.253Z,30.10
2019-04-19T16:34:45.221Z,30.00
2019-04-19T16:39:51.849Z,29.80
2019-04-19T16:44:57.294Z,29.70
2019-04-19T16:50:02.887Z,29.60
2019-04-19T16:55:09.417Z,29.50
2019-04-19T17:00:14.856Z,29.30
2019-04-19T17:05:20.632Z,29.20
2019-04-19T17:10:26.793Z,29.00
2019-04-19T17:15:54.891Z,28.90
2019-04-19T17:21:03.718Z,28.80
2019-04-19T17:26:10.830Z,28.60
2019-04-19T17:31:16.461Z,28.50
2019-04-19T17:36:22.015Z,28.30
2019-04-19T17:41:28.157Z,28.10
2019-04-19T17:46:33.438Z,27.90
2019-04-19T17:51:39.846Z,27.70
2019-04-19T17:56:45.318Z,27.60
2019-04-19T18:01:51.217Z,27.20
2019-04-19T18:07:00.959Z,27.00
2019-04-19T18:12:05.258Z,26.70
2019-04-19T18:17:10.633Z,26.50
2019-04-19T18:22:31.120Z,26.40
2019-04-19T18:27:26.204Z,26.10
2019-04-19T18:32:44.734Z,26.00
2019-04-19T18:37:49.281Z,25.70
2019-04-19T18:43:09.709Z,25.60
2019-04-19T18:48:01.660Z,25.40
2019-04-19T18:53:19.182Z,25.30
2019-04-19T18:58:21.323Z,25.10
2019-04-19T19:03:22.117Z,25.00
2019-04-19T19:08:31.135Z,24.90
2019-04-19T19:13:37.276Z,24.80
2019-04-19T19:18:50.208Z,24.60
2019-04-19T19:24:15.100Z,24.50
2019-04-19T19:29:00.186Z,24.40
2019-04-19T19:34:05.733Z,24.30
2019-04-19T19:39:18.336Z,24.20
2019-04-19T19:44:37.442Z,24.00
2019-04-19T19:49:48.997Z,23.90
2019-04-19T19:54:58.996Z,23.80
2019-04-19T19:59:43.569Z,23.70
2019-04-19T20:04:47.615Z,23.60
2019-04-19T20:09:56.544Z,23.40
2019-04-19T20:15:01.596Z,23.20
2019-04-19T20:20:07.937Z,23.20
2019-04-19T20:47:31.113Z,22.80
2019-04-19T20:52:47.761Z,22.60
2019-04-19T20:58:01.035Z,22.50
2019-04-19T23:46:58.703Z,19.60
